Flight Track Log - Related Links

Times and Time Zones

All times are in EDT time to prevent confusion due to time zone crossing. See the AAY876 flight status page for this flight to view local times or setup timezone preferences in your user account.


Time Position Orientation Groundspeed Altitude Reporting Facility
EDT Latitude Longitude Course Direction KTS MPH feet Rate Location/Type
Thu 03:03:04 PM 27.9000 -82.6833 180° South 162 186 600  Level Tampa TRACON
Thu 03:04:28 PM 27.8167 -82.6833 180° South 199 229 3,600 1,375 Climbing Tampa TRACON
Thu 03:05:28 PM 27.8167 -82.7667 270° West 283 326 3,900 1,500 Climbing Tampa TRACON
Thu 03:06:28 PM 27.8833 -82.8000 336° Northwest 285 328 6,600 2,650 Climbing Tampa TRACON
Thu 03:07:28 PM 27.9500 -82.8000 360° North 293 337 9,200 1,633 Climbing Tampa TRACON
Thu 03:11:22 PM 28.3231 -82.7817 North 378 435 14,600 1,592 Climbing Jacksonville Center
Thu 03:12:22 PM 28.4317 -82.8053 349° North 393 452 17,000 2,132 Climbing Jacksonville Center
Thu 03:13:23 PM 28.5403 -82.8289 349° North 398 458 18,900 1,686 Climbing Jacksonville Center
Thu 03:14:23 PM 28.6508 -82.8500 350° North 398 458 20,400 1,664 Climbing Jacksonville Center
Thu 03:15:22 PM 28.7761 -82.8761 350° North 403 464 22,200 1,866 Climbing Jacksonville Center
Thu 03:16:22 PM 28.8928 -82.8997 350° North 414 476 24,100 1,550 Climbing Jacksonville Center
Thu 03:17:22 PM 29.0139 -82.9233 350° North 419 482 25,300 942 Climbing Jacksonville Center
Thu 03:18:23 PM 29.1308 -82.9497 349° North 424 488 26,000 843 Climbing Jacksonville Center
Thu 03:19:23 PM 29.2539 -82.9758 350° North 436 502 27,000 1,250 Climbing Jacksonville Center
Thu 03:20:23 PM 29.3750 -82.9997 350° North 436 502 28,500 1,250 Climbing Jacksonville Center
Thu 03:21:23 PM 29.4939 -83.0261 349° North 436 502 29,500 700 Climbing Jacksonville Center
Thu 03:22:23 PM 29.6025 -83.0525 348° North 431 496 29,900 200 Climbing Jacksonville Center
Thu 03:23:23 PM 29.7131 -83.1031 338° Northwest 431 496 29,900  Level Jacksonville Center
Thu 03:24:23 PM 29.8236 -83.1511 339° North 426 490 29,900  Level Jacksonville Center
Thu 03:25:23 PM 29.9278 -83.2042 336° Northwest 420 483 29,900 50 Level Jacksonville Center
Thu 03:26:23 PM 30.0406 -83.2525 340° North 415 478 30,000 151 Climbing Jacksonville Center
Thu 03:27:22 PM 30.1469 -83.3033 338° Northwest 415 478 30,200 600 Climbing Jacksonville Center
Thu 03:28:23 PM 30.2553 -83.3519 339° North 415 478 31,200 843 Climbing Jacksonville Center
Thu 03:29:23 PM 30.3594 -83.4031 337° Northwest 415 478 31,900 353 Climbing Jacksonville Center
Thu 03:30:22 PM 30.4658 -83.4517 339° North 415 478 31,900  Level Jacksonville Center
Thu 03:31:22 PM 30.5719 -83.5031 337° Northwest 415 478 31,900  Level Jacksonville Center
Thu 03:32:23 PM 30.6783 -83.5544 337° Northwest 415 478 31,900 50 Level Jacksonville Center
Thu 03:33:23 PM 30.7947 -83.6108 337° Northwest 410 472 32,000 50 Climbing Jacksonville Center
Thu 03:34:23 PM 30.9011 -83.6600 338° Northwest 410 472 32,000  Level Jacksonville Center
Thu 03:35:23 PM 31.0092 -83.7094 339° North 416 479 32,000  Level Jacksonville Center
Thu 03:37:07 PM 31.1997 -83.8033 337° Northwest 431 496 32,000  Level Atlanta Center
Thu 03:38:07 PM 31.3061 -83.8542 338° Northwest 426 490 32,000  Level Atlanta Center
Thu 03:39:07 PM 31.4147 -83.9075 337° Northwest 414 476 32,000  Level Atlanta Center
Thu 03:40:07 PM 31.5108 -83.9536 338° Northwest 414 476 32,000  Level Atlanta Center
Thu 03:41:07 PM 31.6275 -83.9878 346° North 419 482 32,000  Level Atlanta Center
Thu 03:42:07 PM 31.7486 -84.0119 350° North 424 488 32,000  Level Atlanta Center
Thu 03:43:07 PM 31.8656 -84.0364 350° North 430 495 32,000  Level Atlanta Center
Thu 03:44:07 PM 31.9867 -84.0633 349° North 430 495 32,000  Level Atlanta Center
Thu 03:45:07 PM 32.1056 -84.0878 350° North 430 495 32,000  Level Atlanta Center
Thu 03:46:08 PM 32.2225 -84.1150 349° North 430 495 32,000  Level Atlanta Center
Thu 03:47:07 PM 32.3414 -84.1422 349° North 430 495 32,000  Level Atlanta Center
Thu 03:48:07 PM 32.4603 -84.1692 349° North 430 495 32,000  Level Atlanta Center
Thu 03:49:07 PM 32.5772 -84.1942 350° North 430 495 32,000  Level Atlanta Center
Thu 03:50:07 PM 32.6919 -84.2214 349° North 430 495 32,000  Level Atlanta Center
Thu 03:51:07 PM 32.8108 -84.2539 347° North 430 495 32,000  Level Atlanta Center
Thu 03:52:07 PM 32.9403 -84.2814 350° North 430 495 32,000  Level Atlanta Center
Thu 03:53:07 PM 33.0550 -84.3089 349° North 430 495 32,000  Level Atlanta Center
Thu 03:54:07 PM 33.1761 -84.3342 350° North 430 495 32,000  Level Atlanta Center
Thu 03:55:07 PM 33.2928 -84.3619 349° North 430 495 32,000  Level Atlanta Center
Thu 03:56:07 PM 33.4097 -84.3872 350° North 430 495 32,000  Level Atlanta Center
Thu 03:57:07 PM 33.5286 -84.4150 349° North 429 494 32,000  Level Atlanta Center
Thu 03:58:07 PM 33.6453 -84.4406 350° North 424 488 32,000  Level Atlanta Center
Thu 03:59:07 PM 33.7622 -84.4686 349° North 424 488 32,000  Level Atlanta Center
Thu 04:00:07 PM 33.8789 -84.4967 349° North 429 494 32,000  Level Atlanta Center
Thu 04:01:08 PM 33.9708 -84.5197 348° North 424 488 32,000  Level Atlanta Center
Thu 04:02:07 PM 34.1000 -84.5531 348° North 429 494 32,000  Level Atlanta Center
Thu 04:03:07 PM 34.2292 -84.5789 351° North 424 488 32,000  Level Atlanta Center
Thu 04:04:07 PM 34.3439 -84.6072 348° North 424 488 32,000  Level Atlanta Center
Thu 04:05:07 PM 34.4586 -84.6358 348° North 419 482 32,000  Level Atlanta Center
Thu 04:06:07 PM 34.5711 -84.6619 349° North 414 476 32,000  Level Atlanta Center
Thu 04:07:07 PM 34.6711 -84.6903 347° North 414 476 32,000  Level Atlanta Center
Thu 04:08:07 PM 34.7858 -84.7192 348° North 414 476 32,000  Level Atlanta Center
Thu 04:09:07 PM 34.9025 -84.7478 349° North 414 476 32,000  Level Atlanta Center
Thu 04:10:08 PM 35.0150 -84.7767 348° North 414 476 32,000  Level Atlanta Center
Thu 04:11:07 PM 35.1400 -84.8083 348° North 414 476 32,000  Level Atlanta Center
Thu 04:12:07 PM 35.2547 -84.8375 348° North 414 476 32,000  Level Atlanta Center
Thu 04:13:07 PM 35.3692 -84.8639 349° North 414 476 32,000  Level Atlanta Center
Thu 04:14:07 PM 35.4817 -84.8931 348° North 414 476 32,000  Level Atlanta Center
Thu 04:15:07 PM 35.5961 -84.9225 348° North 414 476 32,000  Level Atlanta Center
Thu 04:17:06 PM 35.8117 -84.9756 349° North 419 482 32,000  Level Indianapolis Center
Thu 04:18:08 PM 35.9258 -85.0042 349° North 419 482 32,000  Level Indianapolis Center
Thu 04:19:10 PM 36.0564 -85.0378 348° North 418 481 32,000  Level Indianapolis Center
Thu 04:20:12 PM 36.1697 -85.0664 348° North 418 481 32,000  Level Indianapolis Center
Thu 04:21:15 PM 36.2839 -85.0958 348° North 417 480 32,000  Level Indianapolis Center
Thu 04:22:17 PM 36.3969 -85.1247 348° North 417 480 32,000  Level Indianapolis Center
Thu 04:23:19 PM 36.5114 -85.1553 348° North 417 480 32,000  Level Indianapolis Center
Thu 04:24:21 PM 36.6244 -85.1836 349° North 414 476 32,000  Level Indianapolis Center
Thu 04:25:23 PM 36.7606 -85.2192 348° North 416 479 32,000  Level Indianapolis Center
Thu 04:26:25 PM 36.8750 -85.2494 348° North 416 479 32,000  Level Indianapolis Center
Thu 04:27:27 PM 36.9886 -85.2792 348° North 417 480 32,000  Level Indianapolis Center
Thu 04:28:29 PM 37.0981 -85.3081 348° North 417 480 32,000  Level Indianapolis Center
Thu 04:29:31 PM 37.2314 -85.3439 348° North 418 481 32,000  Level Indianapolis Center
Thu 04:30:33 PM 37.3467 -85.3742 348° North 418 481 32,000  Level Indianapolis Center
Thu 04:31:36 PM 37.4611 -85.4036 348° North 418 481 32,000  Level Indianapolis Center
Thu 04:32:38 PM 37.5769 -85.4397 346° North 423 487 32,000  Level Indianapolis Center
Thu 04:33:40 PM 37.6842 -85.4983 337° Northwest 421 484 32,000  Level Indianapolis Center
Thu 04:34:42 PM 37.7994 -85.5589 337° Northwest 418 481 32,000  Level Indianapolis Center
Thu 04:35:44 PM 37.9053 -85.6161 337° Northwest 414 476 32,000  Level Indianapolis Center
Thu 04:36:46 PM 38.0142 -85.6708 338° Northwest 414 476 32,000  Level Indianapolis Center
Thu 04:37:48 PM 38.1203 -85.7292 337° Northwest 415 478 32,000  Level Indianapolis Center
Thu 04:38:50 PM 38.2464 -85.7961 337° Northwest 412 474 32,000  Level Indianapolis Center
Thu 04:39:52 PM 38.3542 -85.8539 337° Northwest 413 475 32,000  Level Indianapolis Center
Thu 04:40:55 PM 38.4594 -85.9092 338° Northwest 414 476 32,000  Level Indianapolis Center
Thu 04:41:57 PM 38.5664 -85.9669 337° Northwest 414 476 32,000  Level Indianapolis Center
Thu 04:42:59 PM 38.6717 -86.0242 337° Northwest 414 476 32,000  Level Indianapolis Center
Thu 04:44:01 PM 38.7786 -86.0822 337° Northwest 414 476 32,000  Level Indianapolis Center
Thu 04:45:03 PM 38.8897 -86.1422 337° Northwest 414 476 32,000  Level Indianapolis Center
Thu 04:46:05 PM 39.0183 -86.2108 337° Northwest 414 476 32,000  Level Indianapolis Center
Thu 04:47:07 PM 39.1258 -86.2694 337° Northwest 415 478 32,000  Level Indianapolis Center
Thu 04:48:09 PM 39.2322 -86.3278 337° Northwest 415 478 32,000  Level Indianapolis Center
Thu 04:49:11 PM 39.3400 -86.3878 337° Northwest 416 479 32,000  Level Indianapolis Center
Thu 04:50:14 PM 39.4481 -86.4469 337° Northwest 417 480 32,000  Level Indianapolis Center
Thu 04:51:16 PM 39.5569 -86.5078 337° Northwest 418 481 32,000  Level Indianapolis Center
Thu 04:52:18 PM 39.6675 -86.5669 338° Northwest 419 482 32,000  Level Indianapolis Center
Thu 04:53:20 PM 39.7772 -86.6289 337° Northwest 422 486 32,000  Level Indianapolis Center
Thu 04:54:22 PM 39.9086 -86.7019 337° Northwest 423 487 32,000  Level Indianapolis Center
Thu 04:55:24 PM 40.0178 -86.7636 337° Northwest 423 487 32,000  Level Indianapolis Center
Thu 04:56:26 PM 40.1267 -86.8250 337° Northwest 423 487 32,000  Level Indianapolis Center
Thu 04:57:28 PM 40.2361 -86.8869 337° Northwest 424 488 32,000  Level Indianapolis Center
Thu 04:58:30 PM 40.3456 -86.9481 337° Northwest 426 490 32,000  Level Indianapolis Center
Thu 04:59:32 PM 40.4556 -87.0117 336° Northwest 428 493 32,000  Level Indianapolis Center
Thu 05:00:35 PM 40.5822 -87.0944 334° Northwest 426 490 32,000  Level Indianapolis Center
Thu 05:01:37 PM 40.6628 -87.1992 315° West 411 473 32,000 -290 Level Indianapolis Center
Thu 05:02:39 PM 40.7444 -87.3022 316° Northwest 409 471 31,400 -726 Descending Indianapolis Center
Thu 05:03:41 PM 40.8269 -87.4044 317° Northwest 409 471 30,500 -919 Descending Indianapolis Center
Thu 05:04:43 PM 40.9119 -87.5075 318° Northwest 411 473 29,500 -968 Descending Indianapolis Center
Thu 05:05:45 PM 40.9967 -87.6153 316° Northwest 419 482 28,500 -726 Descending Indianapolis Center
Thu 05:06:47 PM 41.0981 -87.7428 317° Northwest 420 483 28,000 -216 Descending Indianapolis Center
Thu 05:08:04 PM 41.1978 -87.8689 316° Northwest 421 484 28,000  Level Chicago Center
Thu 05:09:07 PM 41.2803 -87.9769 315° West 418 481 28,000  Level Chicago Center
Thu 05:10:09 PM 41.3814 -88.1072 316° Northwest 421 484 28,000 -484 Level Chicago Center
Thu 05:11:11 PM 41.4661 -88.2150 316° Northwest 422 486 27,000 -1,452 Descending Chicago Center
Thu 05:12:13 PM 41.5439 -88.3336 311° West 427 491 25,000 -1,452 Descending Chicago Center
Thu 05:13:15 PM 41.5728 -88.4803 285° West 414 476 24,000 -1,645 Descending Chicago Center
Thu 05:14:17 PM 41.5972 -88.6281 283° West 397 457 21,600 -2,806 Descending Chicago Center
Thu 05:15:19 PM 41.6217 -88.7856 282° West 378 435 18,200 -3,145 Descending Chicago Center
Thu 05:16:21 PM 41.6467 -88.9231 284° West 368 423 15,100 -2,016 Descending Chicago Center
Thu 05:17:24 PM 41.6739 -89.0519 286° West 364 419 14,000 -528 Descending Chicago Center
Thu 05:18:26 PM 41.6989 -89.1781 285° West 358 412 14,000 -484 Level Chicago Center
Thu 05:19:28 PM 41.7414 -89.2881 297° West 348 400 13,000 -435 Descending Chicago Center
Thu 05:20:30 PM 41.8417 -89.2928 358° North 376 433 13,100 -387 Climbing Chicago Center
Thu 05:21:32 PM 41.9367 -89.2406 22° Northeast 372 428 12,200 -1,548 Descending Chicago Center
Thu 05:22:34 PM 42.0461 -89.2033 14° North 331 381 9,900 -2,274 Descending Chicago Center
Thu 05:23:36 PM 42.1281 -89.1817 11° North 302 348 7,500 -2,323 Descending Chicago Center
Thu 05:24:38 PM 42.2050 -89.1611 11° North 285 328 5,100 -2,064 Descending Chicago Center
Thu 05:25:41 PM 42.2886 -89.1358 13° North 279 321 3,200 -1,248 Descending Chicago Center
Thu 05:26:43 PM 42.3472 -89.1264 North 229 264 2,500 -339 Descending Chicago Center
Thu 05:27:45 PM 42.3611 -89.0681 72° East 185 213 2,500 -48 Level Chicago Center
Thu 05:28:47 PM 42.3253 -89.0675 179° South 148 170 2,400 -48 Descending Chicago Center
Thu 05:29:49 PM 42.2894 -89.0697 183° South 142 163 2,400  Level Chicago Center

Login

Don't have an account? Register now (free) for customized features, flight alerts, and more!